createdAt,value
2022-12-29T00:00:23.558Z,-3.40
2022-12-29T00:02:51.249Z,-3.50
2022-12-29T00:05:18.894Z,-3.50
2022-12-29T00:07:46.556Z,-3.30
2022-12-29T00:10:14.188Z,-3.20
2022-12-29T00:13:00.129Z,-3.40
2022-12-29T00:15:39.665Z,-3.50
2022-12-29T00:18:08.606Z,-3.50
2022-12-29T00:20:56.180Z,-3.50
2022-12-29T00:23:42.238Z,-3.60
2022-12-29T00:26:34.411Z,-3.50
2022-12-29T00:29:21.205Z,-3.50
2022-12-29T00:32:08.138Z,-3.50
2022-12-29T00:34:54.787Z,-3.40
2022-12-29T00:37:42.590Z,-3.30
2022-12-29T00:40:28.774Z,-3.20
2022-12-29T00:43:14.947Z,-3.20
2022-12-29T00:45:43.080Z,-3.20
2022-12-29T00:48:10.743Z,-3.30
2022-12-29T00:50:38.306Z,-3.30
2022-12-29T00:53:05.862Z,-3.40
2022-12-29T00:55:38.923Z,-3.40
2022-12-29T00:58:06.782Z,-3.60
2022-12-29T01:00:34.922Z,-3.60
2022-12-29T01:03:02.922Z,-3.60
2022-12-29T01:05:30.607Z,-3.50
2022-12-29T01:07:58.135Z,-3.60
2022-12-29T01:10:25.683Z,-3.50
2022-12-29T01:12:54.085Z,-3.60
2022-12-29T01:15:23.434Z,-3.50
2022-12-29T01:17:50.983Z,-3.40
2022-12-29T01:20:20.058Z,-3.40
2022-12-29T01:22:48.339Z,-3.50
2022-12-29T01:25:15.883Z,-3.60
2022-12-29T01:27:43.451Z,-3.60
2022-12-29T01:30:11.331Z,-3.60
2022-12-29T01:32:38.890Z,-3.60
2022-12-29T01:35:06.804Z,-3.70
2022-12-29T01:37:36.082Z,-3.70
2022-12-29T01:40:03.936Z,-3.70
2022-12-29T01:42:33.194Z,-3.50
2022-12-29T01:45:10.490Z,-3.50
2022-12-29T01:47:45.796Z,-3.70
2022-12-29T01:50:22.631Z,-3.70
2022-12-29T01:53:01.502Z,-3.70
2022-12-29T01:55:32.323Z,-3.70
2022-12-29T01:58:03.666Z,-3.80
2022-12-29T02:00:32.004Z,-3.70
2022-12-29T02:02:59.812Z,-3.80
2022-12-29T02:06:05.596Z,-3.70
2022-12-29T02:08:33.484Z,-3.70
2022-12-29T02:11:02.202Z,-3.70
2022-12-29T02:13:30.002Z,-3.60
2022-12-29T02:16:22.430Z,-3.60
2022-12-29T02:19:13.213Z,-3.70
2022-12-29T02:21:57.558Z,-3.80
2022-12-29T02:24:33.903Z,-3.60
2022-12-29T02:27:40.186Z,-3.70
2022-12-29T02:30:08.840Z,-3.70
2022-12-29T02:33:04.804Z,-3.70
2022-12-29T02:35:44.539Z,-3.90
2022-12-29T02:38:44.357Z,-3.80
2022-12-29T02:41:18.076Z,-3.90
2022-12-29T02:44:13.665Z,-3.90
2022-12-29T02:46:54.513Z,-3.80
2022-12-29T02:49:28.780Z,-3.60
2022-12-29T02:52:02.314Z,-3.60
2022-12-29T02:54:43.094Z,-3.60
2022-12-29T02:57:23.310Z,-3.70
2022-12-29T02:59:59.439Z,-3.80
2022-12-29T03:02:32.837Z,-3.80
2022-12-29T03:05:26.322Z,-3.90
2022-12-29T03:07:59.740Z,-4.00
2022-12-29T03:10:51.485Z,-4.00
2022-12-29T03:13:46.170Z,-4.10
2022-12-29T03:16:20.229Z,-4.10
2022-12-29T03:19:14.498Z,-4.00
2022-12-29T03:22:29.383Z,-4.00
2022-12-29T03:25:11.629Z,-3.90
2022-12-29T03:27:51.606Z,-3.90
2022-12-29T03:30:20.583Z,-3.80
2022-12-29T03:32:52.933Z,-3.80
2022-12-29T03:35:25.926Z,-3.80
2022-12-29T03:38:18.493Z,-3.90
2022-12-29T03:40:52.332Z,-3.80
2022-12-29T03:43:20.513Z,-3.90
2022-12-29T03:45:48.979Z,-3.80
2022-12-29T03:48:16.632Z,-3.80
2022-12-29T03:50:45.365Z,-3.70
2022-12-29T03:53:13.010Z,-3.80
2022-12-29T03:55:40.692Z,-3.80
2022-12-29T03:58:08.727Z,-3.90
2022-12-29T04:00:53.345Z,-4.00
2022-12-29T04:03:21.103Z,-3.90
2022-12-29T04:05:48.787Z,-3.80
2022-12-29T04:08:16.642Z,-3.70
2022-12-29T04:10:45.119Z,-3.70
2022-12-29T04:13:14.836Z,-3.80
2022-12-29T04:15:44.770Z,-3.80
2022-12-29T04:18:13.575Z,-3.70
2022-12-29T04:21:03.853Z,-3.80
2022-12-29T04:23:37.367Z,-3.90
2022-12-29T04:26:10.064Z,-3.90
2022-12-29T04:28:50.908Z,-4.00
2022-12-29T04:31:28.931Z,-4.00
2022-12-29T04:33:58.367Z,-4.20
2022-12-29T04:36:30.096Z,-4.20
2022-12-29T04:38:58.375Z,-4.20
2022-12-29T04:41:26.560Z,-4.20
2022-12-29T04:43:54.996Z,-4.10
2022-12-29T04:46:45.744Z,-4.10
2022-12-29T04:49:24.424Z,-4.10
2022-12-29T04:52:10.600Z,-4.20
2022-12-29T04:54:38.795Z,-4.20
2022-12-29T04:57:11.434Z,-4.10
2022-12-29T04:59:40.434Z,-4.20
2022-12-29T05:02:09.143Z,-4.20
2022-12-29T05:04:37.445Z,-4.20
2022-12-29T05:07:05.112Z,-4.20
2022-12-29T05:09:32.790Z,-4.20
2022-12-29T05:12:01.847Z,-4.30
2022-12-29T05:14:30.941Z,-4.30
2022-12-29T05:16:58.564Z,-4.20
2022-12-29T05:19:27.454Z,-4.30
2022-12-29T05:21:55.544Z,-4.40
2022-12-29T05:24:23.544Z,-4.40
2022-12-29T05:26:53.767Z,-4.40
2022-12-29T05:29:56.950Z,-4.40
2022-12-29T05:32:24.683Z,-4.50
2022-12-29T05:34:53.825Z,-4.50
2022-12-29T05:37:21.693Z,-4.50
2022-12-29T05:39:49.313Z,-4.50
2022-12-29T05:42:16.959Z,-4.50
2022-12-29T05:45:00.643Z,-4.50
2022-12-29T05:47:57.358Z,-4.40
2022-12-29T05:50:36.583Z,-4.40
2022-12-29T05:53:12.920Z,-4.50
2022-12-29T05:55:46.591Z,-4.50
2022-12-29T05:58:18.093Z,-4.60
2022-12-29T06:00:45.981Z,-4.60
2022-12-29T06:03:13.949Z,-4.50
2022-12-29T06:05:42.907Z,-4.70
2022-12-29T06:08:10.544Z,-4.70
2022-12-29T06:10:38.473Z,-4.60
2022-12-29T06:13:07.324Z,-4.70
2022-12-29T06:15:38.051Z,-4.60
2022-12-29T06:18:08.491Z,-4.50
2022-12-29T06:20:36.079Z,-4.50
2022-12-29T06:23:05.987Z,-4.40
2022-12-29T06:25:34.736Z,-4.50
2022-12-29T06:28:03.749Z,-4.40
2022-12-29T06:30:31.283Z,-4.40
2022-12-29T06:33:00.743Z,-4.50
2022-12-29T06:35:28.554Z,-4.50
2022-12-29T06:38:02.861Z,-4.50
2022-12-29T06:40:35.115Z,-4.50
2022-12-29T06:43:24.813Z,-4.60
2022-12-29T06:46:20.437Z,-4.60
2022-12-29T06:48:49.425Z,-4.50
2022-12-29T06:51:17.526Z,-4.60
2022-12-29T06:53:45.791Z,-4.50
2022-12-29T06:56:20.887Z,-4.40
2022-12-29T06:58:52.168Z,-4.40
2022-12-29T07:01:23.551Z,-4.40
2022-12-29T07:03:51.612Z,-4.50
2022-12-29T07:06:20.802Z,-4.50
2022-12-29T07:08:49.355Z,-4.40
2022-12-29T07:11:23.160Z,-4.40
2022-12-29T07:13:51.821Z,-4.40
2022-12-29T07:16:20.039Z,-4.40
2022-12-29T07:18:47.656Z,-4.40
2022-12-29T07:21:15.365Z,-4.40
2022-12-29T07:23:43.007Z,-4.30
2022-12-29T07:26:14.160Z,-4.30
2022-12-29T07:28:42.908Z,-4.30
2022-12-29T07:31:21.722Z,-4.20
2022-12-29T07:33:50.139Z,-4.10
2022-12-29T07:36:17.908Z,-4.10
2022-12-29T07:38:45.547Z,-4.10
2022-12-29T07:41:13.225Z,-4.10
2022-12-29T07:43:40.850Z,-4.10
2022-12-29T07:46:53.873Z,-4.20
2022-12-29T07:49:24.662Z,-4.20
2022-12-29T07:51:52.418Z,-4.10
2022-12-29T07:54:20.091Z,-4.10
2022-12-29T07:56:48.028Z,-4.30
2022-12-29T07:59:15.644Z,-4.30
2022-12-29T08:01:43.551Z,-4.30
2022-12-29T08:04:11.425Z,-4.20
2022-12-29T08:06:39.222Z,-4.20
2022-12-29T08:09:14.803Z,-4.20
2022-12-29T08:11:44.571Z,-4.20
2022-12-29T08:14:12.512Z,-4.20
2022-12-29T08:16:40.257Z,-4.20
2022-12-29T08:19:08.046Z,-4.20
2022-12-29T08:21:35.711Z,-4.20
2022-12-29T08:24:03.505Z,-4.20
2022-12-29T08:26:31.147Z,-4.20
2022-12-29T08:28:58.710Z,-4.20
2022-12-29T08:31:26.352Z,-4.10
2022-12-29T08:33:54.139Z,-4.00
2022-12-29T08:36:22.096Z,-4.00
2022-12-29T08:38:49.645Z,-4.00
2022-12-29T08:41:17.248Z,-4.00
2022-12-29T08:43:49.089Z,-3.90
2022-12-29T08:46:17.609Z,-4.00
2022-12-29T08:48:45.348Z,-4.00
2022-12-29T08:51:13.311Z,-4.10
2022-12-29T08:53:40.830Z,-4.00
2022-12-29T08:56:10.865Z,-4.10
2022-12-29T08:58:46.656Z,-4.10
2022-12-29T09:01:14.385Z,-4.00
2022-12-29T09:06:32.603Z,-4.10
2022-12-29T09:09:02.757Z,-4.00
2022-12-29T09:11:30.462Z,-4.00
2022-12-29T09:13:58.200Z,-4.00
2022-12-29T09:16:26.045Z,-3.90
2022-12-29T09:18:53.756Z,-3.80
2022-12-29T09:21:21.427Z,-3.70
2022-12-29T09:23:49.320Z,-3.70
2022-12-29T09:26:16.956Z,-3.60
2022-12-29T09:28:45.405Z,-3.70
2022-12-29T09:31:13.163Z,-3.80
2022-12-29T09:33:41.514Z,-3.70
2022-12-29T09:36:10.004Z,-3.60
2022-12-29T09:38:37.593Z,-3.60
2022-12-29T09:41:36.225Z,-3.40
2022-12-29T09:44:06.520Z,-3.30
2022-12-29T09:46:47.545Z,-3.30
2022-12-29T09:49:33.254Z,-3.30
2022-12-29T09:52:16.482Z,-3.20
2022-12-29T09:55:18.470Z,-3.00
2022-12-29T09:58:03.389Z,-3.00
2022-12-29T10:00:42.332Z,-3.00
2022-12-29T10:03:22.039Z,-3.00
2022-12-29T10:05:55.690Z,-2.90
2022-12-29T10:08:44.885Z,-2.90
2022-12-29T10:11:50.683Z,-2.90
2022-12-29T10:14:48.293Z,-2.90
2022-12-29T10:17:51.789Z,-2.70
2022-12-29T10:20:41.006Z,-2.60
2022-12-29T10:23:27.411Z,-2.50
2022-12-29T10:25:55.817Z,-1.10
2022-12-29T10:28:44.786Z,0.40
2022-12-29T10:31:22.110Z,1.70
2022-12-29T10:33:58.579Z,2.30
2022-12-29T10:36:36.807Z,2.90
2022-12-29T10:39:07.824Z,3.40
2022-12-29T10:41:49.447Z,3.50
2022-12-29T10:44:19.607Z,4.20
2022-12-29T10:47:02.146Z,4.50
2022-12-29T10:49:32.214Z,5.10
2022-12-29T10:52:03.506Z,5.30
2022-12-29T10:54:44.082Z,5.70
2022-12-29T10:57:26.767Z,5.80
2022-12-29T10:59:54.615Z,6.60
2022-12-29T11:02:48.869Z,7.40
2022-12-29T11:05:23.831Z,6.80
2022-12-29T11:07:55.908Z,7.00
2022-12-29T11:10:43.663Z,6.70
2022-12-29T11:13:19.979Z,7.50
2022-12-29T11:15:49.944Z,8.20
2022-12-29T11:18:26.597Z,8.50
2022-12-29T11:21:02.570Z,8.00
2022-12-29T11:23:39.937Z,9.00
2022-12-29T11:26:17.153Z,9.30
2022-12-29T11:28:47.590Z,9.40
2022-12-29T11:31:19.419Z,10.00
2022-12-29T11:33:47.109Z,9.70
2022-12-29T11:36:21.506Z,9.40
2022-12-29T11:38:56.625Z,9.40
2022-12-29T11:41:30.811Z,9.10
2022-12-29T11:44:06.472Z,9.20
2022-12-29T11:46:35.732Z,9.70
2022-12-29T11:49:05.235Z,9.90
2022-12-29T11:51:46.038Z,9.60
2022-12-29T11:54:27.224Z,9.70
2022-12-29T11:56:55.659Z,10.00
2022-12-29T11:59:39.011Z,9.30
2022-12-29T12:02:42.892Z,9.10
2022-12-29T12:05:31.525Z,9.70
2022-12-29T12:08:14.925Z,10.20
2022-12-29T12:10:48.069Z,10.30
2022-12-29T12:13:20.834Z,9.90
2022-12-29T12:15:56.758Z,10.10
2022-12-29T12:18:54.727Z,9.30
2022-12-29T12:21:28.079Z,9.50
2022-12-29T12:24:20.214Z,9.80
2022-12-29T12:27:09.340Z,9.70
2022-12-29T12:29:42.089Z,9.50
2022-12-29T12:32:24.171Z,8.90
2022-12-29T12:34:52.244Z,8.80
2022-12-29T12:37:52.056Z,8.50
2022-12-29T12:40:44.696Z,8.10
2022-12-29T12:43:34.037Z,8.00
2022-12-29T12:46:01.683Z,8.40
2022-12-29T12:49:00.243Z,8.90
2022-12-29T12:52:15.736Z,9.00
2022-12-29T12:54:52.347Z,8.70
2022-12-29T12:57:25.841Z,8.90
2022-12-29T13:00:02.564Z,7.70
2022-12-29T13:02:55.809Z,6.30
2022-12-29T13:06:05.174Z,5.70
2022-12-29T13:08:35.789Z,5.00
2022-12-29T13:11:15.491Z,4.10
2022-12-29T13:13:56.887Z,3.30
2022-12-29T13:16:35.913Z,2.50
2022-12-29T13:19:23.405Z,2.20
2022-12-29T13:22:07.679Z,1.80
2022-12-29T13:25:06.096Z,1.50
2022-12-29T13:27:41.852Z,1.40
2022-12-29T13:30:12.280Z,1.20
2022-12-29T13:33:06.587Z,1.10
2022-12-29T13:35:52.034Z,0.70
2022-12-29T13:38:25.991Z,0.50
2022-12-29T13:40:57.831Z,0.30
2022-12-29T13:43:28.217Z,0.00
2022-12-29T13:46:32.295Z,-0.20
2022-12-29T13:49:13.390Z,-0.10
2022-12-29T13:51:47.745Z,-0.20
2022-12-29T13:54:44.740Z,-0.30
2022-12-29T13:57:36.136Z,-0.50
2022-12-29T14:00:19.458Z,-0.50
2022-12-29T14:02:47.119Z,-0.70
2022-12-29T14:05:23.979Z,-0.80
2022-12-29T14:08:00.599Z,-0.90
2022-12-29T14:10:49.859Z,-0.90
2022-12-29T14:13:20.810Z,-0.80
2022-12-29T14:16:00.458Z,-0.80
2022-12-29T14:18:30.176Z,-0.80
2022-12-29T14:21:19.969Z,-0.80
2022-12-29T14:23:49.629Z,-0.80
2022-12-29T14:26:43.499Z,-0.80
2022-12-29T14:29:26.069Z,-0.90
2022-12-29T14:31:54.077Z,-0.80
2022-12-29T14:34:21.728Z,-0.80
2022-12-29T14:36:56.477Z,-0.80
2022-12-29T14:39:37.973Z,-0.80
2022-12-29T14:42:09.868Z,-0.90
2022-12-29T14:44:56.539Z,-0.90
2022-12-29T14:47:31.483Z,-0.90
2022-12-29T14:50:05.967Z,-0.80
2022-12-29T14:52:42.288Z,-0.80
2022-12-29T14:55:19.045Z,-1.00
2022-12-29T14:57:54.682Z,-1.20
2022-12-29T15:00:33.344Z,-1.30
2022-12-29T15:03:09.298Z,-1.30
2022-12-29T15:05:55.657Z,-1.30
2022-12-29T15:08:31.394Z,-1.30
2022-12-29T15:11:18.275Z,-1.40
2022-12-29T15:13:46.913Z,-1.50
2022-12-29T15:16:29.002Z,-1.60
2022-12-29T15:18:57.208Z,-1.50
2022-12-29T15:21:27.929Z,-1.60
2022-12-29T15:23:55.913Z,-1.60
2022-12-29T15:26:24.009Z,-1.80
2022-12-29T15:28:53.288Z,-1.90
2022-12-29T15:31:30.095Z,-1.90
2022-12-29T15:34:13.284Z,-1.90
2022-12-29T15:36:42.555Z,-1.80
2022-12-29T15:39:21.021Z,-1.60
2022-12-29T15:42:01.074Z,-1.80
2022-12-29T15:44:44.238Z,-1.90
2022-12-29T15:47:25.243Z,-1.90
2022-12-29T15:49:59.877Z,-1.90
2022-12-29T15:52:29.729Z,-2.10
2022-12-29T15:54:59.319Z,-2.10
2022-12-29T15:57:37.074Z,-2.00
2022-12-29T16:00:22.092Z,-2.00
2022-12-29T16:02:50.275Z,-2.00
2022-12-29T16:05:19.562Z,-2.00
2022-12-29T16:07:58.977Z,-2.00
2022-12-29T16:10:36.857Z,-2.10
2022-12-29T16:13:14.995Z,-2.20
2022-12-29T16:15:46.055Z,-2.10
2022-12-29T16:18:26.946Z,-2.00
2022-12-29T16:20:56.178Z,-2.00
2022-12-29T16:23:27.381Z,-1.90
2022-12-29T16:25:58.630Z,-2.00
2022-12-29T16:28:37.269Z,-1.90
2022-12-29T16:31:17.528Z,-2.10
2022-12-29T16:33:53.919Z,-2.00
2022-12-29T16:36:52.861Z,-1.90
2022-12-29T16:39:43.051Z,-1.90
2022-12-29T16:42:40.125Z,-2.10
2022-12-29T16:45:19.981Z,-2.20
2022-12-29T16:48:07.486Z,-2.10
2022-12-29T16:50:37.257Z,-2.10
2022-12-29T16:53:06.258Z,-2.20
2022-12-29T16:55:34.340Z,-2.20
2022-12-29T16:58:02.134Z,-2.30
2022-12-29T17:00:36.627Z,-2.20
2022-12-29T17:03:05.119Z,-2.40
2022-12-29T17:05:32.789Z,-2.60
2022-12-29T17:08:02.155Z,-2.60
2022-12-29T17:10:48.685Z,-2.50
2022-12-29T17:13:16.324Z,-2.40
2022-12-29T17:15:44.067Z,-2.30
2022-12-29T17:18:14.228Z,-2.30
2022-12-29T17:20:42.302Z,-2.30
2022-12-29T17:23:22.755Z,-2.40
2022-12-29T17:25:55.149Z,-2.40
2022-12-29T17:28:28.636Z,-2.30
2022-12-29T17:31:02.528Z,-2.20
2022-12-29T17:33:36.844Z,-2.20
2022-12-29T17:36:04.610Z,-2.20
2022-12-29T17:38:35.512Z,-2.20
2022-12-29T17:41:03.291Z,-2.20
2022-12-29T17:43:36.632Z,-2.10
2022-12-29T17:46:07.109Z,-2.10
2022-12-29T17:48:34.871Z,-2.30
2022-12-29T17:51:02.786Z,-2.10
2022-12-29T17:53:31.277Z,-2.10
2022-12-29T17:55:59.055Z,-2.20
2022-12-29T17:58:28.858Z,-2.20
2022-12-29T18:00:59.758Z,-2.20
2022-12-29T18:03:36.880Z,-2.30
2022-12-29T18:06:08.898Z,-2.50
2022-12-29T18:08:38.722Z,-2.60
2022-12-29T18:11:22.444Z,-2.40
2022-12-29T18:13:50.657Z,-2.50
2022-12-29T18:16:18.634Z,-2.70
2022-12-29T18:18:46.553Z,-2.70
2022-12-29T18:21:20.223Z,-2.70
2022-12-29T18:23:48.215Z,-2.60
2022-12-29T18:26:28.152Z,-2.70
2022-12-29T18:28:57.306Z,-2.70
2022-12-29T18:31:27.895Z,-2.70
2022-12-29T18:33:57.393Z,-2.60
2022-12-29T18:36:25.372Z,-2.60
2022-12-29T18:38:54.853Z,-2.70
2022-12-29T18:41:31.526Z,-2.80
2022-12-29T18:44:00.315Z,-2.90
2022-12-29T18:46:30.314Z,-2.90
2022-12-29T18:48:58.040Z,-2.70
2022-12-29T18:51:26.418Z,-2.60
2022-12-29T18:53:54.763Z,-2.70
2022-12-29T18:56:23.866Z,-2.90
2022-12-29T18:58:53.436Z,-3.00
2022-12-29T19:01:24.447Z,-3.10
2022-12-29T19:03:52.900Z,-2.90
2022-12-29T19:06:24.766Z,-2.90
2022-12-29T19:08:59.521Z,-3.10
2022-12-29T19:11:27.797Z,-3.00
2022-12-29T19:13:55.974Z,-3.20
2022-12-29T19:16:25.824Z,-3.30
2022-12-29T19:19:09.237Z,-3.20
2022-12-29T19:21:38.023Z,-3.10
2022-12-29T19:24:06.747Z,-3.10
2022-12-29T19:26:37.006Z,-3.20
2022-12-29T19:29:06.866Z,-3.30
2022-12-29T19:31:35.292Z,-3.30
2022-12-29T19:34:03.601Z,-3.30
2022-12-29T19:36:31.573Z,-3.40
2022-12-29T19:38:59.446Z,-3.40
2022-12-29T19:41:30.103Z,-3.40
2022-12-29T19:43:57.689Z,-3.50
2022-12-29T19:46:25.985Z,-3.70
2022-12-29T19:49:00.322Z,-3.50
2022-12-29T19:51:28.230Z,-3.40
2022-12-29T19:53:56.091Z,-3.50
2022-12-29T19:56:23.929Z,-3.50
2022-12-29T19:58:51.703Z,-3.60
2022-12-29T20:01:22.702Z,-3.50
2022-12-29T20:03:51.619Z,-3.40
2022-12-29T20:06:19.600Z,-3.50
2022-12-29T20:08:47.138Z,-3.60
2022-12-29T20:11:17.173Z,-3.60
2022-12-29T20:13:45.091Z,-3.50
2022-12-29T20:16:18.455Z,-3.40
2022-12-29T20:18:47.701Z,-3.40
2022-12-29T20:21:18.289Z,-3.50
2022-12-29T20:23:47.539Z,-3.50
2022-12-29T20:26:22.244Z,-3.40
2022-12-29T20:28:50.678Z,-3.60
2022-12-29T20:31:25.522Z,-3.50
2022-12-29T20:33:53.983Z,-3.60
2022-12-29T20:36:25.997Z,-3.60
2022-12-29T20:38:55.370Z,-3.50
2022-12-29T20:41:23.514Z,-3.40
2022-12-29T20:43:53.395Z,-3.40
2022-12-29T20:46:24.123Z,-3.40
2022-12-29T20:48:54.637Z,-3.40
2022-12-29T20:51:22.232Z,-3.40
2022-12-29T20:53:49.942Z,-3.40
2022-12-29T20:56:24.349Z,-3.30
2022-12-29T20:59:26.904Z,-3.30
2022-12-29T21:01:42.568Z,-3.30
2022-12-29T21:04:10.502Z,-3.30
2022-12-29T21:06:38.345Z,-3.20
2022-12-29T21:09:06.560Z,-3.10
2022-12-29T21:11:36.138Z,-3.10
2022-12-29T21:14:03.834Z,-3.20
2022-12-29T21:16:31.691Z,-3.30
2022-12-29T21:18:59.590Z,-3.20
2022-12-29T21:21:27.406Z,-3.30
2022-12-29T21:23:55.161Z,-3.20
2022-12-29T21:26:24.442Z,-3.20
2022-12-29T21:28:52.479Z,-3.20
2022-12-29T21:31:30.440Z,-3.30
2022-12-29T21:33:58.542Z,-3.30
2022-12-29T21:36:27.199Z,-3.40
2022-12-29T21:38:55.602Z,-3.30
2022-12-29T21:41:23.254Z,-3.30
2022-12-29T21:44:10.297Z,-3.40
2022-12-29T21:46:40.068Z,-3.40
2022-12-29T21:49:08.077Z,-3.60
2022-12-29T21:51:50.543Z,-3.60
2022-12-29T21:54:47.536Z,-3.60
2022-12-29T21:57:37.148Z,-3.60
2022-12-29T22:00:28.385Z,-3.70
2022-12-29T22:03:22.743Z,-3.70
2022-12-29T22:06:10.916Z,-3.60
2022-12-29T22:08:58.135Z,-3.70
2022-12-29T22:11:45.801Z,-3.60
2022-12-29T22:14:16.400Z,-3.60
2022-12-29T22:16:44.136Z,-3.70
2022-12-29T22:19:11.752Z,-3.50
2022-12-29T22:21:39.532Z,-3.50
2022-12-29T22:24:08.880Z,-3.50
2022-12-29T22:26:39.282Z,-3.50
2022-12-29T22:29:06.976Z,-3.50
2022-12-29T22:31:34.882Z,-3.60
2022-12-29T22:34:03.980Z,-3.50
2022-12-29T22:36:32.676Z,-3.50
2022-12-29T22:39:00.417Z,-3.40
2022-12-29T22:41:28.051Z,-3.50
2022-12-29T22:43:55.606Z,-3.50
2022-12-29T22:46:23.459Z,-3.40
2022-12-29T22:48:51.293Z,-3.40
2022-12-29T22:51:18.909Z,-3.60
2022-12-29T22:53:49.435Z,-3.50
2022-12-29T22:56:17.658Z,-3.40
2022-12-29T22:58:47.127Z,-3.30
2022-12-29T23:01:16.782Z,-3.30
2022-12-29T23:03:45.130Z,-3.30
2022-12-29T23:06:16.162Z,-3.20
2022-12-29T23:08:44.648Z,-3.20
2022-12-29T23:11:13.274Z,-3.20
2022-12-29T23:13:42.196Z,-3.10
2022-12-29T23:16:09.991Z,-3.10
2022-12-29T23:18:38.191Z,-3.20
2022-12-29T23:21:05.963Z,-3.20
2022-12-29T23:24:08.867Z,-3.00
2022-12-29T23:26:40.046Z,-2.90
2022-12-29T23:29:10.357Z,-2.90
2022-12-29T23:31:38.445Z,-2.90
2022-12-29T23:34:07.679Z,-2.90
2022-12-29T23:36:35.790Z,-2.90
2022-12-29T23:39:04.175Z,-2.80
2022-12-29T23:41:31.765Z,-2.70
2022-12-29T23:43:59.354Z,-2.70
2022-12-29T23:46:28.989Z,-2.80
2022-12-29T23:48:56.953Z,-2.80
2022-12-29T23:51:24.587Z,-2.90
2022-12-29T23:53:52.426Z,-2.80
2022-12-29T23:56:22.329Z,-2.70
2022-12-29T23:58:50.977Z,-2.80
